createdAt,value
2019-02-20T00:01:28.468Z,6.70
2019-02-20T00:04:00.679Z,6.70
2019-02-20T00:06:31.828Z,6.70
2019-02-20T00:09:02.579Z,6.70
2019-02-20T00:11:34.106Z,6.70
2019-02-20T00:14:05.385Z,6.70
2019-02-20T00:16:36.080Z,6.70
2019-02-20T00:19:06.713Z,6.70
2019-02-20T00:21:37.462Z,6.60
2019-02-20T00:24:08.151Z,6.60
2019-02-20T00:26:39.001Z,6.60
2019-02-20T00:29:09.602Z,6.60
2019-02-20T00:31:40.703Z,6.60
2019-02-20T00:34:11.743Z,6.60
2019-02-20T00:36:44.034Z,6.70
2019-02-20T00:39:15.853Z,6.80
2019-02-20T00:41:47.251Z,6.80
2019-02-20T00:44:35.186Z,6.80
2019-02-20T00:47:33.661Z,6.80
2019-02-20T00:50:05.304Z,6.80
2019-02-20T00:52:50.661Z,6.80
2019-02-20T00:55:21.333Z,6.90
2019-02-20T00:57:51.819Z,6.90
2019-02-20T01:00:23.354Z,6.80
2019-02-20T01:02:57.591Z,6.80
2019-02-20T01:05:28.589Z,6.60
2019-02-20T01:07:59.463Z,6.60
2019-02-20T01:10:33.379Z,6.50
2019-02-20T01:13:04.032Z,6.60
2019-02-20T01:15:34.735Z,6.60
2019-02-20T01:18:05.339Z,6.60
2019-02-20T01:20:39.439Z,6.60
2019-02-20T01:23:10.742Z,6.60
2019-02-20T01:25:41.128Z,6.50
2019-02-20T01:28:11.770Z,6.50
2019-02-20T01:30:42.545Z,6.50
2019-02-20T01:33:13.332Z,6.50
2019-02-20T01:35:45.146Z,6.50
2019-02-20T01:38:16.182Z,6.50
2019-02-20T01:40:47.741Z,6.50
2019-02-20T01:43:18.837Z,6.40
2019-02-20T01:45:49.623Z,6.40
2019-02-20T01:48:20.919Z,6.50
2019-02-20T01:50:51.702Z,6.50
2019-02-20T01:53:22.590Z,6.50
2019-02-20T01:55:53.396Z,6.50
2019-02-20T01:58:24.500Z,6.50
2019-02-20T02:00:56.355Z,6.40
2019-02-20T02:03:28.185Z,6.40
2019-02-20T02:05:59.379Z,6.30
2019-02-20T02:08:30.782Z,6.30
2019-02-20T02:11:02.569Z,6.30
2019-02-20T02:13:34.542Z,6.30
2019-02-20T02:16:05.981Z,6.30
2019-02-20T02:18:37.717Z,6.30
2019-02-20T02:21:09.298Z,6.30
2019-02-20T02:23:41.883Z,6.30
2019-02-20T02:26:12.629Z,6.20
2019-02-20T02:28:44.292Z,6.10
2019-02-20T02:31:15.054Z,6.00
2019-02-20T02:33:46.099Z,6.10
2019-02-20T02:36:17.179Z,6.10
2019-02-20T02:38:49.010Z,6.20
2019-02-20T02:41:20.062Z,6.20
2019-02-20T02:43:50.764Z,6.30
2019-02-20T02:46:21.881Z,6.30
2019-02-20T02:48:52.804Z,6.30
2019-02-20T02:51:23.542Z,6.40
2019-02-20T02:53:54.639Z,6.50
2019-02-20T02:56:25.182Z,6.50
2019-02-20T02:58:57.627Z,6.50
2019-02-20T03:01:29.113Z,6.60
2019-02-20T03:04:00.340Z,6.50
2019-02-20T03:06:31.797Z,6.60
2019-02-20T03:09:02.903Z,6.50
2019-02-20T03:11:33.838Z,6.50
2019-02-20T03:14:05.168Z,6.50
2019-02-20T03:16:35.784Z,6.50
2019-02-20T03:19:07.441Z,6.50
2019-02-20T03:21:38.583Z,6.50
2019-02-20T03:24:10.968Z,6.50
2019-02-20T03:26:42.161Z,6.50
2019-02-20T03:29:13.129Z,6.50
2019-02-20T03:31:43.825Z,6.50
2019-02-20T03:34:14.607Z,6.50
2019-02-20T03:36:45.615Z,6.40
2019-02-20T03:39:16.903Z,6.40
2019-02-20T03:41:49.041Z,6.40
2019-02-20T03:44:20.169Z,6.40
2019-02-20T03:46:51.336Z,6.40
2019-02-20T03:49:22.295Z,6.40
2019-02-20T03:51:53.111Z,6.40
2019-02-20T03:54:24.125Z,6.30
2019-02-20T03:56:55.522Z,6.40
2019-02-20T03:59:26.594Z,6.30
2019-02-20T04:01:58.224Z,6.30
2019-02-20T04:04:29.362Z,6.30
2019-02-20T04:07:00.619Z,6.30
2019-02-20T04:09:31.378Z,6.30
2019-02-20T04:12:02.566Z,6.30
2019-02-20T04:14:34.382Z,6.30
2019-02-20T04:17:05.564Z,6.30
2019-02-20T04:19:36.451Z,6.30
2019-02-20T04:22:08.169Z,6.30
2019-02-20T04:24:38.842Z,6.20
2019-02-20T04:27:10.069Z,6.30
2019-02-20T04:29:41.800Z,6.30
2019-02-20T04:32:13.622Z,6.30
2019-02-20T04:34:44.862Z,6.30
2019-02-20T04:37:16.969Z,6.30
2019-02-20T04:39:47.534Z,6.30
2019-02-20T04:42:19.137Z,6.30
2019-02-20T04:44:50.126Z,6.30
2019-02-20T04:47:22.304Z,6.30
2019-02-20T04:49:53.668Z,6.30
2019-02-20T04:52:24.826Z,6.20
2019-02-20T04:54:55.989Z,6.20
2019-02-20T04:57:28.067Z,6.20
2019-02-20T04:59:59.603Z,6.20
2019-02-20T05:02:30.564Z,6.20
2019-02-20T05:05:01.452Z,6.10
2019-02-20T05:07:33.433Z,6.10
2019-02-20T05:10:04.493Z,6.10
2019-02-20T05:12:35.951Z,6.10
2019-02-20T05:15:07.007Z,6.10
2019-02-20T05:17:38.018Z,6.10
2019-02-20T05:20:09.047Z,6.10
2019-02-20T05:22:40.234Z,6.10
2019-02-20T05:25:10.925Z,6.10
2019-02-20T05:27:41.841Z,6.10
2019-02-20T05:30:14.228Z,6.10
2019-02-20T05:32:44.819Z,6.10
2019-02-20T05:35:23.006Z,6.20
2019-02-20T05:37:53.573Z,6.10
2019-02-20T05:40:25.278Z,6.10
2019-02-20T05:42:56.412Z,6.10
2019-02-20T05:45:26.997Z,6.10
2019-02-20T05:48:02.757Z,6.10
2019-02-20T05:50:38.479Z,6.20
2019-02-20T05:53:09.577Z,6.20
2019-02-20T05:55:40.663Z,6.20
2019-02-20T05:58:11.645Z,6.20
2019-02-20T06:00:42.425Z,6.20
2019-02-20T06:03:13.134Z,6.30
2019-02-20T06:05:43.830Z,6.20
2019-02-20T06:08:14.730Z,6.30
2019-02-20T06:10:45.357Z,6.30
2019-02-20T06:13:16.954Z,6.30
2019-02-20T06:15:48.020Z,6.30
2019-02-20T06:18:18.745Z,6.30
2019-02-20T06:20:49.945Z,6.30
2019-02-20T06:23:21.357Z,6.40
2019-02-20T06:25:52.153Z,6.40
2019-02-20T06:28:22.871Z,6.30
2019-02-20T06:30:53.942Z,6.40
2019-02-20T06:33:24.418Z,6.30
2019-02-20T06:35:54.800Z,6.40
2019-02-20T06:38:25.720Z,6.40
2019-02-20T06:41:02.132Z,6.40
2019-02-20T06:43:32.817Z,6.40
2019-02-20T06:46:04.173Z,6.40
2019-02-20T06:48:35.348Z,6.40
2019-02-20T06:51:07.362Z,6.50
2019-02-20T06:53:38.331Z,6.50
2019-02-20T06:56:09.731Z,6.60
2019-02-20T06:58:40.668Z,6.60
2019-02-20T07:01:11.778Z,6.60
2019-02-20T07:03:42.749Z,6.70
2019-02-20T07:06:31.869Z,6.70
2019-02-20T07:09:45.965Z,6.60
2019-02-20T07:12:54.034Z,6.60
2019-02-20T07:16:02.115Z,6.70
2019-02-20T07:18:48.702Z,6.70
2019-02-20T07:21:56.292Z,6.70
2019-02-20T07:25:08.372Z,6.60
2019-02-20T07:28:14.275Z,6.70
2019-02-20T07:30:45.223Z,6.70
2019-02-20T07:33:15.821Z,6.60
2019-02-20T07:35:46.884Z,6.60
2019-02-20T07:38:18.021Z,6.70
2019-02-20T07:40:48.717Z,6.80
2019-02-20T07:43:19.487Z,6.80
2019-02-20T07:45:50.579Z,6.80
2019-02-20T07:48:21.824Z,6.90
2019-02-20T07:50:53.626Z,6.90
2019-02-20T07:53:24.257Z,6.90
2019-02-20T07:55:54.980Z,7.00
2019-02-20T07:58:26.070Z,7.00
2019-02-20T08:00:57.516Z,7.00
2019-02-20T08:03:29.668Z,7.00
2019-02-20T08:06:00.840Z,7.10
2019-02-20T08:08:31.663Z,7.10
2019-02-20T08:11:04.349Z,7.10
2019-02-20T08:13:39.392Z,7.10
2019-02-20T08:16:09.432Z,7.20
2019-02-20T08:18:40.529Z,7.20
2019-02-20T08:21:11.870Z,7.30
2019-02-20T08:23:42.828Z,7.30
2019-02-20T08:26:14.269Z,7.40
2019-02-20T08:28:47.751Z,7.40
2019-02-20T08:31:19.451Z,7.30
2019-02-20T08:33:50.714Z,7.30
2019-02-20T08:36:21.611Z,7.40
2019-02-20T08:38:52.348Z,7.40
2019-02-20T08:41:23.958Z,7.40
2019-02-20T08:43:57.468Z,7.40
2019-02-20T08:46:28.075Z,7.50
2019-02-20T08:48:59.023Z,7.50
2019-02-20T08:51:30.013Z,7.40
2019-02-20T08:54:01.439Z,7.50
2019-02-20T08:56:33.136Z,7.60
2019-02-20T08:59:05.293Z,7.50
2019-02-20T09:01:36.311Z,7.60
2019-02-20T09:04:08.123Z,7.70
2019-02-20T09:06:39.720Z,7.70
2019-02-20T09:09:11.054Z,7.70
2019-02-20T09:11:41.680Z,7.80
2019-02-20T09:14:12.836Z,7.80
2019-02-20T09:16:43.500Z,7.80
2019-02-20T09:19:15.041Z,7.80
2019-02-20T09:21:46.430Z,7.90
2019-02-20T09:24:17.596Z,7.80
2019-02-20T09:26:49.196Z,7.80
2019-02-20T09:29:21.582Z,7.80
2019-02-20T09:31:52.329Z,7.80
2019-02-20T09:34:23.762Z,7.80
2019-02-20T09:36:55.161Z,7.90
2019-02-20T09:39:34.430Z,8.10
2019-02-20T09:42:06.581Z,8.10
2019-02-20T09:44:41.106Z,8.00
2019-02-20T09:47:12.127Z,8.00
2019-02-20T09:49:43.837Z,8.10
2019-02-20T09:52:14.647Z,8.10
2019-02-20T09:54:45.479Z,8.20
2019-02-20T09:57:16.562Z,8.10
2019-02-20T09:59:47.505Z,8.00
2019-02-20T10:02:18.211Z,8.00
2019-02-20T10:04:51.971Z,8.00
2019-02-20T10:07:22.880Z,8.10
2019-02-20T10:09:53.720Z,8.30
2019-02-20T10:12:26.215Z,8.30
2019-02-20T10:14:56.821Z,8.30
2019-02-20T10:17:27.858Z,8.30
2019-02-20T10:19:58.683Z,8.60
2019-02-20T10:22:29.623Z,8.50
2019-02-20T10:25:00.912Z,8.60
2019-02-20T10:27:33.031Z,8.60
2019-02-20T10:30:04.271Z,8.60
2019-02-20T10:32:35.349Z,8.60
2019-02-20T10:35:07.051Z,8.60
2019-02-20T10:37:37.621Z,8.80
2019-02-20T10:40:10.053Z,8.80
2019-02-20T10:42:41.017Z,8.90
2019-02-20T10:45:12.190Z,8.90
2019-02-20T10:47:43.234Z,8.90
2019-02-20T10:50:15.410Z,9.10
2019-02-20T10:52:46.617Z,9.10
2019-02-20T10:55:18.107Z,8.90
2019-02-20T10:57:50.431Z,9.00
2019-02-20T11:00:24.461Z,9.30
2019-02-20T11:02:55.702Z,9.50
2019-02-20T11:05:27.028Z,9.90
2019-02-20T11:07:58.516Z,10.10
2019-02-20T11:10:29.523Z,9.80
2019-02-20T11:13:00.431Z,10.00
2019-02-20T11:15:32.728Z,9.90
2019-02-20T11:18:03.717Z,9.80
2019-02-20T11:20:34.803Z,9.70
2019-02-20T11:23:05.950Z,9.50
2019-02-20T11:25:36.797Z,9.50
2019-02-20T11:28:07.404Z,9.70
2019-02-20T11:30:38.872Z,9.70
2019-02-20T11:33:09.689Z,9.60
2019-02-20T11:35:41.008Z,9.50
2019-02-20T11:38:12.070Z,9.40
2019-02-20T11:40:43.489Z,9.20
2019-02-20T11:43:15.089Z,9.20
2019-02-20T11:45:45.789Z,9.10
2019-02-20T11:48:17.821Z,9.20
2019-02-20T11:50:50.421Z,9.20
2019-02-20T11:53:21.194Z,9.20
2019-02-20T11:55:53.188Z,9.10
2019-02-20T11:58:24.029Z,9.20
2019-02-20T12:00:56.822Z,9.30
2019-02-20T12:03:27.913Z,9.50
2019-02-20T12:05:59.781Z,9.50
2019-02-20T12:08:31.259Z,9.50
2019-02-20T12:11:02.177Z,9.40
2019-02-20T12:13:33.360Z,9.30
2019-02-20T12:16:04.778Z,9.40
2019-02-20T12:18:35.540Z,9.50
2019-02-20T12:21:06.447Z,9.50
2019-02-20T12:23:37.744Z,9.50
2019-02-20T12:26:08.784Z,9.60
2019-02-20T12:28:42.358Z,9.60
2019-02-20T12:31:14.064Z,9.50
2019-02-20T12:33:45.108Z,9.60
2019-02-20T12:36:16.498Z,9.70
2019-02-20T12:38:48.419Z,9.80
2019-02-20T12:41:19.912Z,9.80
2019-02-20T12:43:51.118Z,10.00
2019-02-20T12:46:22.449Z,10.20
2019-02-20T12:48:54.237Z,10.30
2019-02-20T12:51:25.826Z,10.30
2019-02-20T12:53:56.789Z,10.10
2019-02-20T12:56:27.684Z,10.10
2019-02-20T12:59:07.455Z,10.30
2019-02-20T13:01:31.472Z,10.30
2019-02-20T13:04:02.133Z,10.50
2019-02-20T13:06:32.910Z,10.70
2019-02-20T13:09:05.006Z,10.80
2019-02-20T13:11:35.586Z,11.00
2019-02-20T13:14:06.513Z,11.10
2019-02-20T13:16:37.404Z,10.80
2019-02-20T13:19:08.579Z,10.80
2019-02-20T13:21:39.597Z,10.90
2019-02-20T13:24:11.140Z,10.70
2019-02-20T13:26:42.462Z,10.60
2019-02-20T13:29:14.987Z,10.50
2019-02-20T13:31:46.751Z,10.40
2019-02-20T13:34:17.373Z,10.30
2019-02-20T13:36:48.704Z,10.30
2019-02-20T13:39:20.153Z,10.20
2019-02-20T13:41:52.608Z,10.10
2019-02-20T13:44:23.870Z,10.20
2019-02-20T13:46:55.446Z,10.20
2019-02-20T13:49:28.312Z,10.20
2019-02-20T13:51:59.868Z,10.30
2019-02-20T13:54:30.618Z,10.20
2019-02-20T13:57:02.428Z,10.10
2019-02-20T13:59:33.857Z,10.20
2019-02-20T14:02:05.071Z,10.20
2019-02-20T14:04:36.258Z,10.20
2019-02-20T14:07:07.447Z,10.00
2019-02-20T14:09:40.357Z,10.00
2019-02-20T14:12:11.343Z,10.10
2019-02-20T14:14:42.985Z,9.80
2019-02-20T14:17:15.346Z,9.70
2019-02-20T14:19:46.479Z,9.60
2019-02-20T14:22:20.323Z,9.70
2019-02-20T14:24:52.312Z,9.80
2019-02-20T14:27:23.747Z,9.90
2019-02-20T14:29:55.307Z,10.10
2019-02-20T14:32:26.584Z,10.10
2019-02-20T14:34:59.630Z,10.10
2019-02-20T14:37:31.220Z,10.20
2019-02-20T14:40:02.613Z,10.30
2019-02-20T14:42:34.035Z,10.20
2019-02-20T14:45:06.895Z,10.30
2019-02-20T14:47:39.039Z,10.20
2019-02-20T14:50:11.548Z,10.20
2019-02-20T14:52:42.982Z,9.90
2019-02-20T14:55:15.983Z,9.80
2019-02-20T14:57:46.692Z,9.70
2019-02-20T15:00:17.467Z,9.50
2019-02-20T15:02:48.652Z,9.40
2019-02-20T15:05:19.993Z,9.30
2019-02-20T15:07:52.493Z,9.10
2019-02-20T15:10:23.546Z,9.20
2019-02-20T15:12:56.075Z,9.00
2019-02-20T15:15:27.781Z,9.10
2019-02-20T15:18:02.491Z,9.10
2019-02-20T15:20:35.583Z,9.10
2019-02-20T15:23:07.235Z,9.10
2019-02-20T15:25:38.520Z,9.00
2019-02-20T15:28:11.157Z,9.00
2019-02-20T15:30:43.113Z,9.00
2019-02-20T15:33:15.080Z,8.90
2019-02-20T15:35:46.503Z,8.90
2019-02-20T15:38:20.532Z,8.90
2019-02-20T15:40:53.170Z,8.80
2019-02-20T15:43:24.786Z,8.80
2019-02-20T15:45:56.088Z,8.80
2019-02-20T15:48:27.037Z,8.80
2019-02-20T15:50:58.934Z,8.90
2019-02-20T15:53:30.432Z,8.90
2019-02-20T15:56:02.328Z,8.80
2019-02-20T15:58:33.401Z,8.80
2019-02-20T16:01:11.585Z,8.80
2019-02-20T16:03:43.509Z,8.60
2019-02-20T16:06:15.310Z,8.60
2019-02-20T16:08:49.625Z,8.40
2019-02-20T16:11:22.347Z,8.30
2019-02-20T16:13:54.761Z,8.20
2019-02-20T16:16:28.223Z,8.10
2019-02-20T16:19:00.822Z,8.00
2019-02-20T16:21:33.828Z,7.90
2019-02-20T16:24:06.544Z,7.90
2019-02-20T16:26:40.722Z,7.80
2019-02-20T16:29:13.665Z,7.70
2019-02-20T16:31:45.782Z,7.80
2019-02-20T16:34:18.290Z,7.80
2019-02-20T16:36:51.881Z,7.80
2019-02-20T16:39:23.950Z,7.90
2019-02-20T16:41:56.000Z,7.90
2019-02-20T16:44:28.918Z,7.90
2019-02-20T16:47:01.953Z,8.00
2019-02-20T16:49:37.874Z,8.00
2019-02-20T16:52:12.341Z,8.00
2019-02-20T16:54:44.384Z,8.00
2019-02-20T16:57:16.098Z,8.00
2019-02-20T16:59:48.226Z,8.20
2019-02-20T17:02:19.740Z,8.10
2019-02-20T17:04:59.187Z,8.00
2019-02-20T17:07:25.668Z,8.10
2019-02-20T17:09:58.699Z,8.10
2019-02-20T17:12:30.506Z,8.10
2019-02-20T17:15:01.456Z,8.00
2019-02-20T17:17:33.680Z,8.10
2019-02-20T17:20:05.181Z,8.00
2019-02-20T17:22:36.499Z,7.90
2019-02-20T17:25:09.907Z,8.00
2019-02-20T17:27:42.909Z,8.00
2019-02-20T17:30:16.651Z,8.00
2019-02-20T17:32:49.800Z,7.90
2019-02-20T17:35:22.472Z,7.80
2019-02-20T17:37:55.152Z,7.80
2019-02-20T17:40:28.281Z,7.80
2019-02-20T17:43:00.958Z,7.80
2019-02-20T17:45:33.705Z,7.80
2019-02-20T17:48:05.823Z,7.80
2019-02-20T17:50:37.378Z,7.80
2019-02-20T17:53:09.047Z,7.80
2019-02-20T17:55:42.779Z,7.80
2019-02-20T17:58:17.698Z,7.90
2019-02-20T18:00:48.369Z,7.90
2019-02-20T18:03:20.218Z,7.90
2019-02-20T18:05:52.361Z,7.90
2019-02-20T18:08:25.366Z,7.90
2019-02-20T18:10:58.530Z,7.90
2019-02-20T18:13:30.506Z,7.90
2019-02-20T18:16:04.118Z,7.90
2019-02-20T18:18:35.297Z,7.90
2019-02-20T18:21:07.712Z,7.80
2019-02-20T18:23:40.160Z,7.90
2019-02-20T18:26:12.582Z,7.90
2019-02-20T18:28:44.224Z,7.90
2019-02-20T18:31:16.655Z,7.90
2019-02-20T18:33:50.608Z,7.90
2019-02-20T18:36:23.502Z,7.80
2019-02-20T18:38:55.477Z,7.80
2019-02-20T18:41:28.100Z,7.80
2019-02-20T18:43:59.927Z,7.80
2019-02-20T18:46:32.306Z,7.80
2019-02-20T18:49:05.561Z,7.90
2019-02-20T18:51:37.862Z,7.80
2019-02-20T18:54:11.388Z,7.80
2019-02-20T18:56:48.198Z,7.80
2019-02-20T18:59:20.444Z,7.80
2019-02-20T19:01:52.858Z,7.80
2019-02-20T19:04:25.382Z,7.80
2019-02-20T19:06:57.663Z,7.80
2019-02-20T19:09:33.166Z,7.80
2019-02-20T19:12:46.175Z,7.80
2019-02-20T19:15:55.411Z,7.80
2019-02-20T19:19:11.511Z,7.70
2019-02-20T19:22:20.699Z,7.70
2019-02-20T19:25:39.961Z,7.60
2019-02-20T19:28:48.226Z,7.60
2019-02-20T19:31:56.591Z,7.60
2019-02-20T19:34:51.872Z,7.60
2019-02-20T19:37:41.541Z,7.70
2019-02-20T19:41:15.602Z,7.60
2019-02-20T19:44:26.818Z,7.70
2019-02-20T19:47:47.565Z,7.60
2019-02-20T19:50:56.547Z,7.70
2019-02-20T19:54:05.581Z,7.60
2019-02-20T19:56:50.629Z,7.60
2019-02-20T20:00:06.746Z,7.60
2019-02-20T20:03:06.402Z,7.60
2019-02-20T20:06:12.708Z,7.50
2019-02-20T20:09:10.888Z,7.40
2019-02-20T20:12:24.455Z,7.40
2019-02-20T20:15:39.333Z,7.40
2019-02-20T20:18:28.430Z,7.40
2019-02-20T20:21:49.594Z,7.40
2019-02-20T20:24:55.359Z,7.40
2019-02-20T20:27:58.856Z,7.40
2019-02-20T20:31:14.966Z,7.40
2019-02-20T20:34:19.610Z,7.40
2019-02-20T20:37:17.623Z,7.40
2019-02-20T20:40:33.550Z,7.40
2019-02-20T20:43:52.147Z,7.40
2019-02-20T20:46:33.117Z,7.40
2019-02-20T20:49:37.655Z,7.30
2019-02-20T20:52:38.665Z,7.40
2019-02-20T20:55:39.901Z,7.40
2019-02-20T20:58:41.158Z,7.40
2019-02-20T21:01:42.537Z,7.40
2019-02-20T21:05:01.476Z,7.40
2019-02-20T21:07:45.570Z,7.40
2019-02-20T21:10:46.318Z,7.40
2019-02-20T21:13:47.454Z,7.40
2019-02-20T21:17:23.459Z,7.40
2019-02-20T21:20:36.856Z,7.30
2019-02-20T21:23:40.944Z,7.30
2019-02-20T21:26:37.911Z,7.30
2019-02-20T21:29:48.191Z,7.30
2019-02-20T21:32:50.443Z,7.30
2019-02-20T21:35:50.909Z,7.30
2019-02-20T21:39:15.157Z,7.30
2019-02-20T21:41:53.961Z,7.40
2019-02-20T21:45:12.514Z,7.40
2019-02-20T21:48:36.762Z,7.40
2019-02-20T21:51:32.618Z,7.40
2019-02-20T21:54:39.187Z,7.40
2019-02-20T21:57:44.326Z,7.40
2019-02-20T22:00:46.469Z,7.40
2019-02-20T22:03:54.955Z,7.40
2019-02-20T22:06:43.047Z,7.40
2019-02-20T22:09:58.155Z,7.30
2019-02-20T22:12:54.018Z,7.30
2019-02-20T22:15:46.878Z,7.30
2019-02-20T22:18:31.168Z,7.40
2019-02-20T22:21:44.223Z,7.40
2019-02-20T22:24:43.139Z,7.40
2019-02-20T22:27:49.348Z,7.30
2019-02-20T22:30:54.209Z,7.30
2019-02-20T22:34:08.693Z,7.30
2019-02-20T22:37:09.611Z,7.30
2019-02-20T22:40:10.915Z,7.20
2019-02-20T22:43:26.908Z,7.30
2019-02-20T22:46:23.710Z,7.30
2019-02-20T22:49:15.299Z,7.20
2019-02-20T22:52:08.781Z,7.30
2019-02-20T22:55:14.794Z,7.20
2019-02-20T22:58:32.746Z,7.20
2019-02-20T23:01:33.979Z,7.20
2019-02-20T23:04:47.419Z,7.30
2019-02-20T23:07:44.962Z,7.30
2019-02-20T23:10:47.447Z,7.30
2019-02-20T23:13:53.841Z,7.30
2019-02-20T23:16:24.711Z,7.30
2019-02-20T23:18:55.209Z,7.30
2019-02-20T23:21:26.365Z,7.30
2019-02-20T23:23:57.363Z,7.30
2019-02-20T23:26:27.987Z,7.30
2019-02-20T23:28:59.122Z,7.40
2019-02-20T23:31:29.915Z,7.30
2019-02-20T23:34:01.170Z,7.30
2019-02-20T23:36:31.972Z,7.30
2019-02-20T23:39:02.596Z,7.30
2019-02-20T23:41:33.502Z,7.30
2019-02-20T23:44:04.158Z,7.30
2019-02-20T23:46:35.580Z,7.40
2019-02-20T23:49:06.397Z,7.30
2019-02-20T23:51:37.067Z,7.30
2019-02-20T23:54:07.939Z,7.30
2019-02-20T23:56:38.485Z,7.40
2019-02-20T23:59:10.725Z,7.50
